createdAt,value
2022-10-11T00:00:49.085Z,22.15
2022-10-11T00:05:48.272Z,22.17
2022-10-11T00:10:48.431Z,21.98
2022-10-11T00:15:47.740Z,21.91
2022-10-11T00:20:46.068Z,21.84
2022-10-11T00:25:45.284Z,21.88
2022-10-11T00:30:44.387Z,22.02
2022-10-11T00:35:43.714Z,21.99
2022-10-11T00:40:43.878Z,21.67
2022-10-11T00:45:44.217Z,21.54
2022-10-11T00:50:42.525Z,21.80
2022-10-11T00:55:40.844Z,22.05
2022-10-11T01:00:40.157Z,22.27
2022-10-11T01:05:39.490Z,22.54
2022-10-11T01:10:40.775Z,22.60
2022-10-11T01:15:38.054Z,22.37
2022-10-11T01:20:37.377Z,22.76
2022-10-11T01:25:36.681Z,23.19
2022-10-11T01:30:36.994Z,23.32
2022-10-11T01:35:36.309Z,23.22
2022-10-11T01:40:35.664Z,23.17
2022-10-11T01:45:34.794Z,23.16
2022-10-11T01:50:33.076Z,23.17
2022-10-11T01:55:32.391Z,23.01
2022-10-11T02:00:32.710Z,22.37
2022-10-11T02:05:32.043Z,22.07
2022-10-11T02:10:30.344Z,22.20
2022-10-11T02:15:29.635Z,22.24
2022-10-11T02:20:28.939Z,22.03
2022-10-11T02:25:28.247Z,21.96
2022-10-11T02:30:27.581Z,21.99
2022-10-11T02:35:27.007Z,21.88
2022-10-11T02:40:26.335Z,21.82
2022-10-11T02:45:25.661Z,21.99
2022-10-11T02:50:24.817Z,22.25
2022-10-11T02:55:25.094Z,22.22
2022-10-11T03:00:23.439Z,22.28
2022-10-11T03:05:23.543Z,22.27
2022-10-11T03:10:21.915Z,22.15
2022-10-11T03:15:22.024Z,22.27
2022-10-11T03:20:20.342Z,22.46
2022-10-11T03:25:20.615Z,22.54
2022-10-11T03:30:20.923Z,22.35
2022-10-11T03:35:18.225Z,21.74
2022-10-11T03:40:17.564Z,22.18
2022-10-11T03:45:18.879Z,22.39
2022-10-11T03:50:16.184Z,22.35
2022-10-11T03:55:15.542Z,22.43
2022-10-11T04:00:14.693Z,22.51
2022-10-11T04:05:13.847Z,22.40
2022-10-11T04:10:12.944Z,22.09
2022-10-11T04:15:13.249Z,22.22
2022-10-11T04:20:12.397Z,22.30
2022-10-11T04:25:10.513Z,22.27
2022-10-11T04:30:10.873Z,22.30
2022-10-11T04:35:09.021Z,22.31
2022-10-11T04:40:09.194Z,21.99
2022-10-11T04:45:07.321Z,21.99
2022-10-11T04:50:06.453Z,22.20
2022-10-11T04:55:05.775Z,22.18
2022-10-11T05:00:05.104Z,22.15
2022-10-11T05:05:05.392Z,22.15
2022-10-11T05:10:03.724Z,22.45
2022-10-11T05:15:02.938Z,22.37
2022-10-11T05:20:03.086Z,22.24
2022-10-11T05:25:01.403Z,22.05
2022-10-11T05:30:00.759Z,22.05
2022-10-11T05:34:59.889Z,22.20
2022-10-11T05:39:59.056Z,22.37
2022-10-11T05:44:59.375Z,22.54
2022-10-11T05:49:58.637Z,22.90
2022-10-11T05:54:59.916Z,23.02
2022-10-11T05:59:57.178Z,23.17
2022-10-11T06:04:55.464Z,23.28
2022-10-11T06:09:54.744Z,23.33
2022-10-11T06:14:55.033Z,23.17
2022-10-11T06:19:53.326Z,23.09
2022-10-11T06:24:52.645Z,23.12
2022-10-11T06:29:51.942Z,23.05
2022-10-11T06:34:51.251Z,23.09
2022-10-11T06:39:50.586Z,22.95
2022-10-11T06:44:49.921Z,22.88
2022-10-11T06:49:51.051Z,22.80
2022-10-11T06:54:48.363Z,22.64
2022-10-11T06:59:48.668Z,22.80
2022-10-11T07:04:47.029Z,22.97
2022-10-11T07:09:47.129Z,22.97
2022-10-11T07:14:46.485Z,23.12
2022-10-11T07:19:47.701Z,23.13
2022-10-11T07:24:44.825Z,23.17
2022-10-11T07:29:43.143Z,23.13
2022-10-11T07:34:42.466Z,23.15
2022-10-11T07:39:41.760Z,23.16
2022-10-11T07:44:42.066Z,23.05
2022-10-11T07:49:40.357Z,22.57
2022-10-11T07:54:39.666Z,22.24
2022-10-11T07:59:39.989Z,22.20
2022-10-11T08:04:40.316Z,22.28
2022-10-11T08:09:37.626Z,22.28
2022-10-11T08:14:37.930Z,22.36
2022-10-11T08:19:38.090Z,22.37
2022-10-11T08:24:38.310Z,22.40
2022-10-11T08:29:34.417Z,22.30
2022-10-11T08:34:34.725Z,22.36
2022-10-11T08:39:34.055Z,22.36
2022-10-11T08:44:51.816Z,22.07
2022-10-11T08:49:33.524Z,21.99
2022-10-11T08:54:30.799Z,22.24
2022-10-11T08:59:31.198Z,22.36
2022-10-11T09:04:29.275Z,22.55
2022-10-11T09:09:31.668Z,22.73
2022-10-11T09:14:27.759Z,22.97
2022-10-11T09:19:28.085Z,23.13
2022-10-11T09:24:28.424Z,23.16
2022-10-11T09:29:25.747Z,23.33
2022-10-11T09:34:25.899Z,23.39
2022-10-11T09:39:25.000Z,23.53
2022-10-11T09:44:25.307Z,23.76
2022-10-11T09:49:22.753Z,24.00
2022-10-11T09:54:21.941Z,24.03
2022-10-11T09:59:21.061Z,24.22
2022-10-11T10:04:20.376Z,24.16
2022-10-11T10:09:21.850Z,24.03
2022-10-11T10:14:19.976Z,24.08
2022-10-11T10:19:18.460Z,24.08
2022-10-11T10:24:17.541Z,24.00
2022-10-11T10:29:16.856Z,24.00
2022-10-11T10:34:17.152Z,23.90
2022-10-11T10:39:16.467Z,24.00
2022-10-11T10:44:14.793Z,24.09
2022-10-11T10:49:52.593Z,24.03
2022-10-11T10:54:13.096Z,24.13
2022-10-11T10:59:12.437Z,24.09
2022-10-11T11:04:11.852Z,24.12
2022-10-11T11:09:10.962Z,24.08
2022-10-11T11:14:10.272Z,24.09
2022-10-11T11:19:09.618Z,24.05
2022-10-11T11:24:10.755Z,24.00
2022-10-11T11:29:08.883Z,24.05
2022-10-11T11:34:07.256Z,23.94
2022-10-11T11:39:06.381Z,24.05
2022-10-11T11:44:06.724Z,24.03
2022-10-11T11:49:07.625Z,23.98
2022-10-11T11:54:05.311Z,24.05
2022-10-11T11:59:03.636Z,24.02
2022-10-11T12:04:04.972Z,23.91
2022-10-11T12:09:02.276Z,23.90
2022-10-11T12:14:01.720Z,23.88
2022-10-11T12:19:00.824Z,23.85
2022-10-11T12:24:02.175Z,23.83
2022-10-11T12:29:00.474Z,23.83
2022-10-11T12:33:58.778Z,23.76
2022-10-11T12:38:58.080Z,23.65
2022-10-11T12:43:57.398Z,23.66
2022-10-11T12:48:59.826Z,23.55
2022-10-11T12:54:21.612Z,23.57
2022-10-11T12:58:55.109Z,23.75
2022-10-11T13:03:54.421Z,23.98
2022-10-11T13:08:54.705Z,24.05
2022-10-11T13:13:55.016Z,24.18
2022-10-11T13:18:52.334Z,24.32
2022-10-11T13:23:51.658Z,24.28
2022-10-11T13:28:53.015Z,24.27
2022-10-11T13:33:51.305Z,24.09
2022-10-11T13:38:51.609Z,24.05
2022-10-11T13:43:50.932Z,24.06
2022-10-11T13:48:49.227Z,24.06
2022-10-11T13:53:47.536Z,23.93
2022-10-11T13:58:46.846Z,23.91
2022-10-11T14:03:48.196Z,23.79
2022-10-11T14:08:45.519Z,23.76
2022-10-11T14:13:44.654Z,23.68
2022-10-11T14:18:44.968Z,23.53
2022-10-11T14:23:44.616Z,23.53
2022-10-11T14:28:43.590Z,23.53
2022-10-11T14:33:41.940Z,23.51
2022-10-11T14:38:43.111Z,23.47
2022-10-11T14:43:40.234Z,23.38
2022-10-11T14:48:55.063Z,23.38
2022-10-11T14:53:40.957Z,23.31
2022-10-11T14:58:38.771Z,23.22
2022-10-11T15:03:38.093Z,23.19
2022-10-11T15:08:36.428Z,23.15
2022-10-11T15:13:36.720Z,23.07
2022-10-11T15:18:36.100Z,23.00
2022-10-11T15:23:34.211Z,22.86
2022-10-11T15:28:34.561Z,22.83
2022-10-11T15:33:32.680Z,22.77
2022-10-11T15:38:31.976Z,22.70
2022-10-11T15:43:31.446Z,22.58
2022-10-11T15:48:31.560Z,22.49
2022-10-11T15:53:29.871Z,22.47
2022-10-11T15:58:30.164Z,22.39
2022-10-11T16:03:29.495Z,22.42
2022-10-11T16:08:27.601Z,23.16
2022-10-11T16:14:08.928Z,23.32
2022-10-11T16:18:31.254Z,23.50
2022-10-11T16:23:25.390Z,23.51
2022-10-11T16:28:24.595Z,23.65
2022-10-11T16:33:24.783Z,23.61
2022-10-11T16:38:22.916Z,23.66
2022-10-11T16:43:23.200Z,23.50
2022-10-11T16:48:21.488Z,23.31
2022-10-11T16:53:21.918Z,23.02
2022-10-11T16:58:20.979Z,22.88
2022-10-11T17:03:19.268Z,22.79
2022-10-11T17:08:19.587Z,22.77
2022-10-11T17:13:17.991Z,22.62
2022-10-11T17:18:16.233Z,22.65
2022-10-11T17:23:17.322Z,22.37
2022-10-11T17:28:17.911Z,22.36
2022-10-11T17:33:14.854Z,22.27
2022-10-11T17:38:16.333Z,22.22
2022-10-11T17:43:13.749Z,22.10
2022-10-11T17:48:13.707Z,22.10
2022-10-11T17:53:11.884Z,21.98
2022-10-11T17:58:12.079Z,21.94
2022-10-11T18:03:11.335Z,21.82
2022-10-11T18:08:09.471Z,21.82
2022-10-11T18:13:12.015Z,21.84
2022-10-11T18:18:09.104Z,21.84
2022-10-11T18:23:08.220Z,21.72
2022-10-11T18:28:06.786Z,21.62
2022-10-11T18:33:06.760Z,21.67
2022-10-11T18:38:06.104Z,21.38
2022-10-11T18:43:05.173Z,21.28
2022-10-11T18:48:03.439Z,21.83
2022-10-11T18:58:03.256Z,21.96
2022-10-11T19:03:02.178Z,21.99
2022-10-11T19:08:02.656Z,22.31
2022-10-11T19:13:00.971Z,22.22
2022-10-11T19:18:00.008Z,22.31
2022-10-11T19:22:58.246Z,22.45
2022-10-11T19:27:57.410Z,22.17
2022-10-11T19:32:58.590Z,21.99
2022-10-11T19:37:56.106Z,22.03
2022-10-11T19:42:54.972Z,22.10
2022-10-11T19:47:55.406Z,21.98
2022-10-11T19:52:53.463Z,22.02
2022-10-11T19:57:52.676Z,22.00
2022-10-11T20:02:53.062Z,21.82
2022-10-11T20:07:51.022Z,21.86
2022-10-11T20:12:51.227Z,21.61
2022-10-11T20:17:50.415Z,21.61
2022-10-11T20:22:48.615Z,21.56
2022-10-11T20:27:47.874Z,21.84
2022-10-11T20:32:47.125Z,21.80
2022-10-11T20:37:47.357Z,21.83
2022-10-11T20:42:45.560Z,21.82
2022-10-11T20:47:44.777Z,21.92
2022-10-11T20:52:44.999Z,21.99
2022-10-11T20:57:43.187Z,22.10
2022-10-11T21:02:42.364Z,22.06
2022-10-11T21:07:42.586Z,21.90
2022-10-11T21:12:40.758Z,21.72
2022-10-11T21:17:39.963Z,21.58
2022-10-11T21:22:39.155Z,21.47
2022-10-11T21:27:40.412Z,21.68
2022-10-11T21:32:38.597Z,21.65
2022-10-11T21:37:37.811Z,21.77
2022-10-11T21:42:36.388Z,21.53
2022-10-11T21:47:39.034Z,21.27
2022-10-11T21:52:34.790Z,21.59
2022-10-11T21:57:34.715Z,21.61
2022-10-11T22:02:33.044Z,21.80
2022-10-11T22:07:33.245Z,21.98
2022-10-11T22:12:31.419Z,21.99
2022-10-11T22:17:30.622Z,21.92
2022-10-11T22:22:30.839Z,22.28
2022-10-11T22:27:30.055Z,21.99
2022-10-11T22:32:28.213Z,21.96
2022-10-11T22:37:28.399Z,21.83
2022-10-11T22:42:29.592Z,21.59
2022-10-11T22:47:27.784Z,21.46
2022-10-11T22:52:24.956Z,21.44
2022-10-11T22:57:25.154Z,21.37
2022-10-11T23:02:23.363Z,21.37
2022-10-11T23:07:22.561Z,21.34
2022-10-11T23:12:21.780Z,21.43
2022-10-11T23:17:22.035Z,21.79
2022-10-11T23:22:20.209Z,22.14
2022-10-11T23:27:19.401Z,22.25
2022-10-11T23:32:18.591Z,22.88
2022-10-11T23:37:18.783Z,22.92
2022-10-11T23:42:16.965Z,22.79
2022-10-11T23:47:17.142Z,22.36
2022-10-11T23:52:15.316Z,22.37
2022-10-11T23:57:15.485Z,22.28
